createdAt,value
2023-01-17T00:02:12.211Z,1.50
2023-01-17T00:17:12.004Z,1.30
2023-01-17T00:32:11.851Z,1.50
2023-01-17T00:47:11.700Z,1.30
2023-01-17T01:02:11.609Z,1.50
2023-01-17T01:17:11.373Z,1.40
2023-01-17T01:32:11.256Z,1.50
2023-01-17T01:47:11.072Z,1.70
2023-01-17T02:02:10.937Z,1.60
2023-01-17T02:17:10.781Z,1.60
2023-01-17T02:32:10.641Z,1.70
2023-01-17T02:47:10.579Z,1.90
2023-01-17T03:02:10.488Z,1.90
2023-01-17T03:17:10.177Z,1.80
2023-01-17T03:32:10.023Z,1.90
2023-01-17T03:47:09.967Z,1.80
2023-01-17T04:02:09.864Z,2.00
2023-01-17T04:17:09.521Z,2.20
2023-01-17T04:32:09.386Z,1.90
2023-01-17T04:47:09.283Z,1.20
2023-01-17T05:02:09.109Z,0.70
2023-01-17T05:17:08.871Z,0.50
2023-01-17T05:32:08.716Z,0.80
2023-01-17T05:47:08.569Z,0.80
2023-01-17T06:02:08.406Z,0.90
2023-01-17T06:17:08.258Z,1.10
2023-01-17T06:32:08.091Z,1.20
2023-01-17T06:47:07.942Z,1.50
2023-01-17T07:02:07.760Z,1.90
2023-01-17T07:17:07.601Z,1.70
2023-01-17T07:32:07.446Z,1.80
2023-01-17T07:47:07.260Z,1.70
2023-01-17T08:02:07.157Z,1.70
2023-01-17T08:17:06.955Z,1.40
2023-01-17T08:32:06.808Z,1.60
2023-01-17T08:47:06.706Z,1.30
2023-01-17T09:02:06.587Z,1.10
2023-01-17T09:17:06.328Z,1.40
2023-01-17T09:32:06.183Z,1.40
2023-01-17T09:47:06.151Z,1.40
2023-01-17T10:02:06.038Z,1.40
2023-01-17T10:17:05.720Z,2.30
2023-01-17T10:32:05.569Z,1.70
2023-01-17T10:47:05.402Z,4.00
2023-01-17T11:02:05.311Z,0.80
2023-01-17T11:17:05.106Z,1.90
2023-01-17T11:32:04.945Z,2.30
2023-01-17T11:47:04.794Z,0.60
2023-01-17T12:02:04.636Z,1.50
2023-01-17T12:17:04.448Z,0.90
2023-01-17T12:32:04.294Z,1.40
2023-01-17T12:47:04.176Z,3.30
2023-01-17T13:02:04.049Z,2.00
2023-01-17T13:17:03.816Z,2.40
2023-01-17T13:32:03.661Z,0.90
2023-01-17T13:47:03.521Z,1.00
2023-01-17T14:02:03.372Z,4.70
2023-01-17T14:17:03.200Z,0.70
2023-01-17T14:32:03.057Z,1.20
2023-01-17T14:47:02.920Z,1.00
2023-01-17T15:02:08.047Z,1.20
2023-01-17T15:17:02.617Z,1.70
2023-01-17T15:32:02.434Z,1.60
2023-01-17T15:47:02.266Z,3.00
2023-01-17T16:02:02.160Z,1.70
2023-01-17T16:17:01.998Z,3.30
2023-01-17T16:32:01.788Z,2.60
2023-01-17T16:47:01.641Z,3.30
2023-01-17T17:02:01.568Z,4.70
2023-01-17T17:17:01.352Z,3.40
2023-01-17T17:32:01.196Z,4.40
2023-01-17T17:47:01.029Z,4.70
2023-01-17T18:02:01.012Z,5.60
2023-01-17T18:17:00.739Z,6.30
2023-01-17T18:32:03.868Z,7.60
2023-01-17T18:47:00.706Z,7.60
2023-01-17T19:02:00.399Z,8.20
2023-01-17T19:17:00.203Z,8.00
2023-01-17T19:32:00.948Z,17.40
2023-01-17T19:47:00.183Z,13.70
2023-01-17T20:01:59.892Z,12.70
2023-01-17T20:16:59.533Z,14.80
2023-01-17T20:31:59.374Z,17.80
2023-01-17T20:46:59.167Z,20.20
2023-01-17T21:01:59.240Z,21.80
2023-01-17T21:16:58.948Z,22.30
2023-01-17T21:31:58.723Z,26.30
2023-01-17T21:46:58.633Z,23.70
2023-01-17T22:01:58.593Z,23.90
2023-01-17T22:16:58.273Z,21.40
2023-01-17T22:31:58.118Z,21.70
2023-01-17T22:46:57.964Z,23.20
2023-01-17T23:01:57.816Z,22.20
2023-01-17T23:16:57.671Z,26.80
2023-01-17T23:31:57.522Z,22.90
2023-01-17T23:46:57.365Z,20.80
